sensor_id;sensor_type;location;lat;lon;timestamp;P1;durP1;ratioP1;P2;durP2;ratioP2
49900;SDS011;35789;48.414;12.768;2023-03-20T00:00:00;7.8;;;3.8;;
49900;SDS011;35789;48.414;12.768;2023-03-20T00:05:00;6.0;;;3.1;;
49900;SDS011;35789;48.414;12.768;2023-03-20T00:10:00;6.0;;;3.1;;
49900;SDS011;35789;48.414;12.768;2023-03-20T00:15:02;6.0;;;3.1;;
49900;SDS011;35789;48.414;12.768;2023-03-20T00:20:00;6.0;;;3.1;;
49900;SDS011;35789;48.414;12.768;2023-03-20T00:25:00;6.0;;;3.1;;
49900;SDS011;35789;48.414;12.768;2023-03-20T00:30:00;6.0;;;3.1;;
49900;SDS011;35789;48.414;12.768;2023-03-20T00:35:01;6.4;;;3.3;;
49900;SDS011;35789;48.414;12.768;2023-03-20T00:40:00;6.4;;;3.3;;
49900;SDS011;35789;48.414;12.768;2023-03-20T00:45:00;6.4;;;3.3;;
49900;SDS011;35789;48.414;12.768;2023-03-20T00:50:00;6.4;;;3.3;;
49900;SDS011;35789;48.414;12.768;2023-03-20T00:55:00;6.4;;;3.3;;
49900;SDS011;35789;48.414;12.768;2023-03-20T01:00:03;6.4;;;3.3;;
49900;SDS011;35789;48.414;12.768;2023-03-20T01:05:00;6.6;;;3.4;;
49900;SDS011;35789;48.414;12.768;2023-03-20T01:10:00;6.6;;;3.4;;
49900;SDS011;35789;48.414;12.768;2023-03-20T01:15:00;6.6;;;3.4;;
49900;SDS011;35789;48.414;12.768;2023-03-20T01:20:00;6.6;;;3.4;;
49900;SDS011;35789;48.414;12.768;2023-03-20T01:25:00;6.6;;;3.4;;
49900;SDS011;35789;48.414;12.768;2023-03-20T01:30:00;6.6;;;3.4;;
49900;SDS011;35789;48.414;12.768;2023-03-20T01:35:00;7.4;;;3.6;;
49900;SDS011;35789;48.414;12.768;2023-03-20T01:40:00;7.4;;;3.6;;
49900;SDS011;35789;48.414;12.768;2023-03-20T01:45:00;7.4;;;3.6;;
49900;SDS011;35789;48.414;12.768;2023-03-20T01:50:17;7.4;;;3.6;;
49900;SDS011;35789;48.414;12.768;2023-03-20T01:55:00;7.4;;;3.6;;
49900;SDS011;35789;48.414;12.768;2023-03-20T02:00:03;7.4;;;3.6;;
49900;SDS011;35789;48.414;12.768;2023-03-20T02:05:02;5.4;;;3.5;;
49900;SDS011;35789;48.414;12.768;2023-03-20T02:10:01;5.4;;;3.5;;
49900;SDS011;35789;48.414;12.768;2023-03-20T02:15:00;5.4;;;3.5;;
49900;SDS011;35789;48.414;12.768;2023-03-20T02:20:06;5.4;;;3.5;;
49900;SDS011;35789;48.414;12.768;2023-03-20T02:25:18;5.4;;;3.5;;
49900;SDS011;35789;48.414;12.768;2023-03-20T02:30:17;5.4;;;3.5;;
49900;SDS011;35789;48.414;12.768;2023-03-20T02:35:18;7.0;;;3.5;;
49900;SDS011;35789;48.414;12.768;2023-03-20T02:40:08;7.0;;;3.5;;
49900;SDS011;35789;48.414;12.768;2023-03-20T02:45:08;7.0;;;3.5;;
49900;SDS011;35789;48.414;12.768;2023-03-20T02:50:07;7.0;;;3.5;;
49900;SDS011;35789;48.414;12.768;2023-03-20T02:55:09;7.0;;;3.5;;
49900;SDS011;35789;48.414;12.768;2023-03-20T03:00:07;7.0;;;3.5;;
49900;SDS011;35789;48.414;12.768;2023-03-20T03:05:03;6.9;;;3.5;;
49900;SDS011;35789;48.414;12.768;2023-03-20T03:10:04;6.9;;;3.5;;
49900;SDS011;35789;48.414;12.768;2023-03-20T03:15:01;6.9;;;3.5;;
49900;SDS011;35789;48.414;12.768;2023-03-20T03:20:03;6.9;;;3.5;;
49900;SDS011;35789;48.414;12.768;2023-03-20T03:25:00;6.9;;;3.5;;
49900;SDS011;35789;48.414;12.768;2023-03-20T03:30:03;6.9;;;3.5;;
49900;SDS011;35789;48.414;12.768;2023-03-20T03:35:01;8.6;;;4.4;;
49900;SDS011;35789;48.414;12.768;2023-03-20T03:40:07;8.6;;;4.4;;
49900;SDS011;35789;48.414;12.768;2023-03-20T03:45:04;8.6;;;4.4;;
49900;SDS011;35789;48.414;12.768;2023-03-20T03:50:03;8.6;;;4.4;;
49900;SDS011;35789;48.414;12.768;2023-03-20T03:55:03;8.6;;;4.4;;
49900;SDS011;35789;48.414;12.768;2023-03-20T04:00:02;8.6;;;4.4;;
49900;SDS011;35789;48.414;12.768;2023-03-20T04:05:01;7.7;;;4.7;;
49900;SDS011;35789;48.414;12.768;2023-03-20T04:10:00;7.7;;;4.7;;
49900;SDS011;35789;48.414;12.768;2023-03-20T04:15:00;7.7;;;4.7;;
49900;SDS011;35789;48.414;12.768;2023-03-20T04:20:00;7.7;;;4.7;;
49900;SDS011;35789;48.414;12.768;2023-03-20T04:25:00;7.7;;;4.7;;
49900;SDS011;35789;48.414;12.768;2023-03-20T04:30:00;7.7;;;4.7;;
49900;SDS011;35789;48.414;12.768;2023-03-20T04:35:00;7.7;;;4.4;;
49900;SDS011;35789;48.414;12.768;2023-03-20T04:40:00;7.7;;;4.4;;
49900;SDS011;35789;48.414;12.768;2023-03-20T04:45:00;7.7;;;4.4;;
49900;SDS011;35789;48.414;12.768;2023-03-20T04:50:00;7.7;;;4.4;;
49900;SDS011;35789;48.414;12.768;2023-03-20T04:55:00;7.7;;;4.4;;
49900;SDS011;35789;48.414;12.768;2023-03-20T05:00:00;7.7;;;4.4;;
49900;SDS011;35789;48.414;12.768;2023-03-20T05:05:00;7.5;;;4.1;;
49900;SDS011;35789;48.414;12.768;2023-03-20T05:10:00;7.5;;;4.1;;
49900;SDS011;35789;48.414;12.768;2023-03-20T05:15:00;7.5;;;4.1;;
49900;SDS011;35789;48.414;12.768;2023-03-20T05:20:00;7.5;;;4.1;;
49900;SDS011;35789;48.414;12.768;2023-03-20T05:25:00;7.5;;;4.1;;
49900;SDS011;35789;48.414;12.768;2023-03-20T05:30:00;7.5;;;4.1;;
49900;SDS011;35789;48.414;12.768;2023-03-20T05:35:00;7.3;;;4.5;;
49900;SDS011;35789;48.414;12.768;2023-03-20T05:40:00;7.3;;;4.5;;
49900;SDS011;35789;48.414;12.768;2023-03-20T05:45:00;7.3;;;4.5;;
49900;SDS011;35789;48.414;12.768;2023-03-20T05:50:00;7.3;;;4.5;;
49900;SDS011;35789;48.414;12.768;2023-03-20T05:55:00;7.3;;;4.5;;
49900;SDS011;35789;48.414;12.768;2023-03-20T06:00:00;7.3;;;4.5;;
49900;SDS011;35789;48.414;12.768;2023-03-20T06:05:00;7.0;;;4.2;;
49900;SDS011;35789;48.414;12.768;2023-03-20T06:10:00;7.0;;;4.2;;
49900;SDS011;35789;48.414;12.768;2023-03-20T06:15:00;7.0;;;4.2;;
49900;SDS011;35789;48.414;12.768;2023-03-20T06:20:00;7.0;;;4.2;;
49900;SDS011;35789;48.414;12.768;2023-03-20T06:25:00;7.0;;;4.2;;
49900;SDS011;35789;48.414;12.768;2023-03-20T06:30:00;7.0;;;4.2;;
49900;SDS011;35789;48.414;12.768;2023-03-20T06:35:00;6.5;;;3.6;;
49900;SDS011;35789;48.414;12.768;2023-03-20T06:40:00;6.5;;;3.6;;
49900;SDS011;35789;48.414;12.768;2023-03-20T06:45:00;6.5;;;3.6;;
49900;SDS011;35789;48.414;12.768;2023-03-20T06:50:00;6.5;;;3.6;;
49900;SDS011;35789;48.414;12.768;2023-03-20T06:55:00;6.5;;;3.6;;
49900;SDS011;35789;48.414;12.768;2023-03-20T07:00:00;6.5;;;3.6;;
49900;SDS011;35789;48.414;12.768;2023-03-20T07:05:00;5.6;;;3.0;;
49900;SDS011;35789;48.414;12.768;2023-03-20T07:10:00;5.6;;;3.0;;
49900;SDS011;35789;48.414;12.768;2023-03-20T07:15:00;5.6;;;3.0;;
49900;SDS011;35789;48.414;12.768;2023-03-20T07:20:00;5.6;;;3.0;;
49900;SDS011;35789;48.414;12.768;2023-03-20T07:25:00;5.6;;;3.0;;
49900;SDS011;35789;48.414;12.768;2023-03-20T07:30:00;5.6;;;3.0;;
49900;SDS011;35789;48.414;12.768;2023-03-20T07:35:00;7.4;;;3.1;;
49900;SDS011;35789;48.414;12.768;2023-03-20T07:40:00;7.4;;;3.1;;
49900;SDS011;35789;48.414;12.768;2023-03-20T07:45:00;7.4;;;3.1;;
49900;SDS011;35789;48.414;12.768;2023-03-20T07:50:00;7.4;;;3.1;;
49900;SDS011;35789;48.414;12.768;2023-03-20T07:55:00;7.4;;;3.1;;
49900;SDS011;35789;48.414;12.768;2023-03-20T08:00:00;7.4;;;3.1;;
49900;SDS011;35789;48.414;12.768;2023-03-20T08:05:00;5.6;;;3.1;;
49900;SDS011;35789;48.414;12.768;2023-03-20T08:10:00;5.6;;;3.1;;
49900;SDS011;35789;48.414;12.768;2023-03-20T08:15:00;5.6;;;3.1;;
49900;SDS011;35789;48.414;12.768;2023-03-20T08:20:00;5.6;;;3.1;;
49900;SDS011;35789;48.414;12.768;2023-03-20T08:25:00;5.6;;;3.1;;
49900;SDS011;35789;48.414;12.768;2023-03-20T08:30:00;5.6;;;3.1;;
49900;SDS011;35789;48.414;12.768;2023-03-20T08:35:00;5.6;;;2.9;;
49900;SDS011;35789;48.414;12.768;2023-03-20T08:40:00;5.6;;;2.9;;
49900;SDS011;35789;48.414;12.768;2023-03-20T08:45:00;5.6;;;2.9;;
49900;SDS011;35789;48.414;12.768;2023-03-20T08:50:00;5.6;;;2.9;;
49900;SDS011;35789;48.414;12.768;2023-03-20T08:55:00;5.6;;;2.9;;
49900;SDS011;35789;48.414;12.768;2023-03-20T09:00:00;5.6;;;2.9;;
49900;SDS011;35789;48.414;12.768;2023-03-20T09:05:00;6.5;;;2.9;;
49900;SDS011;35789;48.414;12.768;2023-03-20T09:10:00;6.5;;;2.9;;
49900;SDS011;35789;48.414;12.768;2023-03-20T09:15:00;6.5;;;2.9;;
49900;SDS011;35789;48.414;12.768;2023-03-20T09:20:02;6.5;;;2.9;;
49900;SDS011;35789;48.414;12.768;2023-03-20T09:25:00;6.5;;;2.9;;
49900;SDS011;35789;48.414;12.768;2023-03-20T09:30:00;6.5;;;2.9;;
49900;SDS011;35789;48.414;12.768;2023-03-20T09:35:01;4.3;;;2.1;;
49900;SDS011;35789;48.414;12.768;2023-03-20T09:40:00;4.3;;;2.1;;
49900;SDS011;35789;48.414;12.768;2023-03-20T09:45:05;4.3;;;2.1;;
49900;SDS011;35789;48.414;12.768;2023-03-20T09:50:11;4.3;;;2.1;;
49900;SDS011;35789;48.414;12.768;2023-03-20T09:55:04;4.3;;;2.1;;
49900;SDS011;35789;48.414;12.768;2023-03-20T10:00:04;4.3;;;2.1;;
49900;SDS011;35789;48.414;12.768;2023-03-20T10:05:02;5.4;;;2.8;;
49900;SDS011;35789;48.414;12.768;2023-03-20T10:10:00;5.4;;;2.8;;
49900;SDS011;35789;48.414;12.768;2023-03-20T10:15:09;5.4;;;2.8;;
49900;SDS011;35789;48.414;12.768;2023-03-20T10:20:18;5.4;;;2.8;;
49900;SDS011;35789;48.414;12.768;2023-03-20T10:25:06;5.4;;;2.8;;
49900;SDS011;35789;48.414;12.768;2023-03-20T10:30:15;5.4;;;2.8;;
49900;SDS011;35789;48.414;12.768;2023-03-20T10:35:11;5.3;;;2.8;;
49900;SDS011;35789;48.414;12.768;2023-03-20T10:40:18;5.3;;;2.8;;
49900;SDS011;35789;48.414;12.768;2023-03-20T10:45:05;5.3;;;2.8;;
49900;SDS011;35789;48.414;12.768;2023-03-20T10:50:03;5.3;;;2.8;;
49900;SDS011;35789;48.414;12.768;2023-03-20T10:55:05;5.3;;;2.8;;
49900;SDS011;35789;48.414;12.768;2023-03-20T11:00:00;5.3;;;2.8;;
49900;SDS011;35789;48.414;12.768;2023-03-20T11:05:01;5.5;;;3.1;;
49900;SDS011;35789;48.414;12.768;2023-03-20T11:10:12;5.5;;;3.1;;
49900;SDS011;35789;48.414;12.768;2023-03-20T11:15:13;5.5;;;3.1;;
49900;SDS011;35789;48.414;12.768;2023-03-20T11:20:04;5.5;;;3.1;;
49900;SDS011;35789;48.414;12.768;2023-03-20T11:25:00;5.5;;;3.1;;
49900;SDS011;35789;48.414;12.768;2023-03-20T11:30:02;5.5;;;3.1;;
49900;SDS011;35789;48.414;12.768;2023-03-20T11:35:09;5.4;;;2.7;;
49900;SDS011;35789;48.414;12.768;2023-03-20T11:40:12;5.4;;;2.7;;
49900;SDS011;35789;48.414;12.768;2023-03-20T11:45:03;5.4;;;2.7;;
49900;SDS011;35789;48.414;12.768;2023-03-20T11:50:03;5.4;;;2.7;;
49900;SDS011;35789;48.414;12.768;2023-03-20T11:55:02;5.4;;;2.7;;
49900;SDS011;35789;48.414;12.768;2023-03-20T12:00:05;5.4;;;2.7;;
49900;SDS011;35789;48.414;12.768;2023-03-20T12:05:00;5.6;;;3.2;;
49900;SDS011;35789;48.414;12.768;2023-03-20T12:10:02;5.6;;;3.2;;
49900;SDS011;35789;48.414;12.768;2023-03-20T12:15:06;5.6;;;3.2;;
49900;SDS011;35789;48.414;12.768;2023-03-20T12:20:04;5.6;;;3.2;;
49900;SDS011;35789;48.414;12.768;2023-03-20T12:25:06;5.6;;;3.2;;
49900;SDS011;35789;48.414;12.768;2023-03-20T12:30:03;5.6;;;3.2;;
49900;SDS011;35789;48.414;12.768;2023-03-20T12:35:04;5.8;;;3.0;;
49900;SDS011;35789;48.414;12.768;2023-03-20T12:40:01;5.8;;;3.0;;
49900;SDS011;35789;48.414;12.768;2023-03-20T12:45:04;5.8;;;3.0;;
49900;SDS011;35789;48.414;12.768;2023-03-20T12:50:05;5.8;;;3.0;;
49900;SDS011;35789;48.414;12.768;2023-03-20T12:55:10;5.8;;;3.0;;
49900;SDS011;35789;48.414;12.768;2023-03-20T13:00:09;5.8;;;3.0;;
49900;SDS011;35789;48.414;12.768;2023-03-20T13:05:09;5.4;;;3.3;;
49900;SDS011;35789;48.414;12.768;2023-03-20T13:10:08;5.4;;;3.3;;
49900;SDS011;35789;48.414;12.768;2023-03-20T13:15:09;5.4;;;3.3;;
49900;SDS011;35789;48.414;12.768;2023-03-20T13:20:16;5.4;;;3.3;;
49900;SDS011;35789;48.414;12.768;2023-03-20T13:25:03;5.4;;;3.3;;
49900;SDS011;35789;48.414;12.768;2023-03-20T13:30:03;5.4;;;3.3;;
49900;SDS011;35789;48.414;12.768;2023-03-20T13:35:12;5.8;;;2.9;;
49900;SDS011;35789;48.414;12.768;2023-03-20T13:40:09;5.8;;;2.9;;
49900;SDS011;35789;48.414;12.768;2023-03-20T13:45:04;5.8;;;2.9;;
49900;SDS011;35789;48.414;12.768;2023-03-20T13:50:11;5.8;;;2.9;;
49900;SDS011;35789;48.414;12.768;2023-03-20T13:55:15;5.8;;;2.9;;
49900;SDS011;35789;48.414;12.768;2023-03-20T14:00:05;5.8;;;2.9;;
49900;SDS011;35789;48.414;12.768;2023-03-20T14:05:03;4.0;;;2.1;;
49900;SDS011;35789;48.414;12.768;2023-03-20T14:15:02;4.0;;;2.1;;
49900;SDS011;35789;48.414;12.768;2023-03-20T14:20:11;4.0;;;2.1;;
49900;SDS011;35789;48.414;12.768;2023-03-20T14:25:04;4.0;;;2.1;;
49900;SDS011;35789;48.414;12.768;2023-03-20T14:35:20;5.2;;;2.4;;
49900;SDS011;35789;48.414;12.768;2023-03-20T14:40:05;5.2;;;2.4;;
49900;SDS011;35789;48.414;12.768;2023-03-20T14:50:04;5.2;;;2.4;;
49900;SDS011;35789;48.414;12.768;2023-03-20T15:00:00;4.2;;;2.1;;
49900;SDS011;35789;48.414;12.768;2023-03-20T15:05:00;4.2;;;2.1;;
49900;SDS011;35789;48.414;12.768;2023-03-20T15:10:01;4.2;;;2.1;;
49900;SDS011;35789;48.414;12.768;2023-03-20T15:15:03;4.2;;;2.1;;
49900;SDS011;35789;48.414;12.768;2023-03-20T15:20:05;4.2;;;2.1;;
49900;SDS011;35789;48.414;12.768;2023-03-20T15:25:00;4.2;;;2.1;;
49900;SDS011;35789;48.414;12.768;2023-03-20T15:30:01;3.4;;;1.5;;
49900;SDS011;35789;48.414;12.768;2023-03-20T15:35:03;3.4;;;1.5;;
49900;SDS011;35789;48.414;12.768;2023-03-20T15:40:09;3.4;;;1.5;;
49900;SDS011;35789;48.414;12.768;2023-03-20T15:45:00;3.4;;;1.5;;
49900;SDS011;35789;48.414;12.768;2023-03-20T15:50:00;3.4;;;1.5;;
49900;SDS011;35789;48.414;12.768;2023-03-20T15:55:03;3.4;;;1.5;;
49900;SDS011;35789;48.414;12.768;2023-03-20T16:00:00;3.5;;;1.4;;
49900;SDS011;35789;48.414;12.768;2023-03-20T16:05:00;3.5;;;1.4;;
49900;SDS011;35789;48.414;12.768;2023-03-20T16:10:00;3.5;;;1.4;;
49900;SDS011;35789;48.414;12.768;2023-03-20T16:15:00;3.5;;;1.4;;
49900;SDS011;35789;48.414;12.768;2023-03-20T16:20:00;3.5;;;1.4;;
49900;SDS011;35789;48.414;12.768;2023-03-20T16:25:01;3.5;;;1.4;;
49900;SDS011;35789;48.414;12.768;2023-03-20T16:30:05;8.3;;;2.7;;
49900;SDS011;35789;48.414;12.768;2023-03-20T16:35:03;8.3;;;2.7;;
49900;SDS011;35789;48.414;12.768;2023-03-20T16:40:02;8.3;;;2.7;;
49900;SDS011;35789;48.414;12.768;2023-03-20T16:45:03;8.3;;;2.7;;
49900;SDS011;35789;48.414;12.768;2023-03-20T16:50:04;8.3;;;2.7;;
49900;SDS011;35789;48.414;12.768;2023-03-20T16:55:00;8.3;;;2.7;;
49900;SDS011;35789;48.414;12.768;2023-03-20T17:00:05;3.0;;;0.9;;
49900;SDS011;35789;48.414;12.768;2023-03-20T17:05:02;3.0;;;0.9;;
49900;SDS011;35789;48.414;12.768;2023-03-20T17:10:11;3.0;;;0.9;;
49900;SDS011;35789;48.414;12.768;2023-03-20T17:15:00;3.0;;;0.9;;
49900;SDS011;35789;48.414;12.768;2023-03-20T17:20:00;3.0;;;0.9;;
49900;SDS011;35789;48.414;12.768;2023-03-20T17:25:00;3.0;;;0.9;;
49900;SDS011;35789;48.414;12.768;2023-03-20T17:30:00;4.4;;;1.2;;
49900;SDS011;35789;48.414;12.768;2023-03-20T17:35:00;4.4;;;1.2;;
49900;SDS011;35789;48.414;12.768;2023-03-20T17:40:00;4.4;;;1.2;;
49900;SDS011;35789;48.414;12.768;2023-03-20T17:45:01;4.4;;;1.2;;
49900;SDS011;35789;48.414;12.768;2023-03-20T17:50:00;4.4;;;1.2;;
49900;SDS011;35789;48.414;12.768;2023-03-20T17:55:00;4.4;;;1.2;;
49900;SDS011;35789;48.414;12.768;2023-03-20T18:00:00;3.8;;;1.3;;
49900;SDS011;35789;48.414;12.768;2023-03-20T18:05:00;3.8;;;1.3;;
49900;SDS011;35789;48.414;12.768;2023-03-20T18:10:00;3.8;;;1.3;;
49900;SDS011;35789;48.414;12.768;2023-03-20T18:15:00;3.8;;;1.3;;
49900;SDS011;35789;48.414;12.768;2023-03-20T18:20:00;3.8;;;1.3;;
49900;SDS011;35789;48.414;12.768;2023-03-20T18:25:00;3.8;;;1.3;;
49900;SDS011;35789;48.414;12.768;2023-03-20T18:30:00;4.9;;;2.2;;
49900;SDS011;35789;48.414;12.768;2023-03-20T18:35:00;4.9;;;2.2;;
49900;SDS011;35789;48.414;12.768;2023-03-20T18:40:01;4.9;;;2.2;;
49900;SDS011;35789;48.414;12.768;2023-03-20T18:45:00;4.9;;;2.2;;
49900;SDS011;35789;48.414;12.768;2023-03-20T18:50:00;4.9;;;2.2;;
49900;SDS011;35789;48.414;12.768;2023-03-20T18:55:00;4.9;;;2.2;;
49900;SDS011;35789;48.414;12.768;2023-03-20T19:00:00;4.3;;;1.5;;
49900;SDS011;35789;48.414;12.768;2023-03-20T19:05:00;4.3;;;1.5;;
49900;SDS011;35789;48.414;12.768;2023-03-20T19:10:00;4.3;;;1.5;;
49900;SDS011;35789;48.414;12.768;2023-03-20T19:15:00;4.3;;;1.5;;
49900;SDS011;35789;48.414;12.768;2023-03-20T19:20:00;4.3;;;1.5;;
49900;SDS011;35789;48.414;12.768;2023-03-20T19:25:00;4.3;;;1.5;;
49900;SDS011;35789;48.414;12.768;2023-03-20T19:30:00;6.6;;;1.9;;
49900;SDS011;35789;48.414;12.768;2023-03-20T19:35:00;6.6;;;1.9;;
49900;SDS011;35789;48.414;12.768;2023-03-20T19:40:00;6.6;;;1.9;;
49900;SDS011;35789;48.414;12.768;2023-03-20T19:45:00;6.6;;;1.9;;
49900;SDS011;35789;48.414;12.768;2023-03-20T19:50:00;6.6;;;1.9;;
49900;SDS011;35789;48.414;12.768;2023-03-20T19:55:00;6.6;;;1.9;;
49900;SDS011;35789;48.414;12.768;2023-03-20T20:00:00;3.6;;;1.5;;
49900;SDS011;35789;48.414;12.768;2023-03-20T20:05:00;3.6;;;1.5;;
49900;SDS011;35789;48.414;12.768;2023-03-20T20:10:00;3.6;;;1.5;;
49900;SDS011;35789;48.414;12.768;2023-03-20T20:15:00;3.6;;;1.5;;
49900;SDS011;35789;48.414;12.768;2023-03-20T20:20:00;3.6;;;1.5;;
49900;SDS011;35789;48.414;12.768;2023-03-20T20:25:00;3.6;;;1.5;;
49900;SDS011;35789;48.414;12.768;2023-03-20T20:30:00;4.8;;;1.7;;
49900;SDS011;35789;48.414;12.768;2023-03-20T20:35:00;4.8;;;1.7;;
49900;SDS011;35789;48.414;12.768;2023-03-20T20:40:00;4.8;;;1.7;;
49900;SDS011;35789;48.414;12.768;2023-03-20T20:45:00;4.8;;;1.7;;
49900;SDS011;35789;48.414;12.768;2023-03-20T20:50:00;4.8;;;1.7;;
49900;SDS011;35789;48.414;12.768;2023-03-20T20:55:00;4.8;;;1.7;;
49900;SDS011;35789;48.414;12.768;2023-03-20T21:00:00;5.3;;;2.0;;
49900;SDS011;35789;48.414;12.768;2023-03-20T21:05:00;5.3;;;2.0;;
49900;SDS011;35789;48.414;12.768;2023-03-20T21:10:00;5.3;;;2.0;;
49900;SDS011;35789;48.414;12.768;2023-03-20T21:15:00;5.3;;;2.0;;
49900;SDS011;35789;48.414;12.768;2023-03-20T21:20:01;5.3;;;2.0;;
49900;SDS011;35789;48.414;12.768;2023-03-20T21:25:00;5.3;;;2.0;;
49900;SDS011;35789;48.414;12.768;2023-03-20T21:30:00;4.2;;;1.7;;
49900;SDS011;35789;48.414;12.768;2023-03-20T21:35:00;4.2;;;1.7;;
49900;SDS011;35789;48.414;12.768;2023-03-20T21:40:00;4.2;;;1.7;;
49900;SDS011;35789;48.414;12.768;2023-03-20T21:45:00;4.2;;;1.7;;
49900;SDS011;35789;48.414;12.768;2023-03-20T21:50:00;4.2;;;1.7;;
49900;SDS011;35789;48.414;12.768;2023-03-20T21:55:00;4.2;;;1.7;;
49900;SDS011;35789;48.414;12.768;2023-03-20T22:00:00;5.2;;;2.3;;
49900;SDS011;35789;48.414;12.768;2023-03-20T22:05:00;5.2;;;2.3;;
49900;SDS011;35789;48.414;12.768;2023-03-20T22:10:01;5.2;;;2.3;;
49900;SDS011;35789;48.414;12.768;2023-03-20T22:15:00;5.2;;;2.3;;
49900;SDS011;35789;48.414;12.768;2023-03-20T22:20:00;5.2;;;2.3;;
49900;SDS011;35789;48.414;12.768;2023-03-20T22:25:00;5.2;;;2.3;;
49900;SDS011;35789;48.414;12.768;2023-03-20T22:30:00;8.3;;;3.5;;
49900;SDS011;35789;48.414;12.768;2023-03-20T22:35:00;8.3;;;3.5;;
49900;SDS011;35789;48.414;12.768;2023-03-20T22:40:00;8.3;;;3.5;;
49900;SDS011;35789;48.414;12.768;2023-03-20T22:45:00;8.3;;;3.5;;
49900;SDS011;35789;48.414;12.768;2023-03-20T22:50:00;8.3;;;3.5;;
49900;SDS011;35789;48.414;12.768;2023-03-20T22:55:00;8.3;;;3.5;;
49900;SDS011;35789;48.414;12.768;2023-03-20T23:00:00;6.7;;;3.0;;
49900;SDS011;35789;48.414;12.768;2023-03-20T23:05:00;6.7;;;3.0;;
49900;SDS011;35789;48.414;12.768;2023-03-20T23:10:00;6.7;;;3.0;;
49900;SDS011;35789;48.414;12.768;2023-03-20T23:15:00;6.7;;;3.0;;
49900;SDS011;35789;48.414;12.768;2023-03-20T23:20:01;6.7;;;3.0;;
49900;SDS011;35789;48.414;12.768;2023-03-20T23:25:00;6.7;;;3.0;;
49900;SDS011;35789;48.414;12.768;2023-03-20T23:30:00;7.9;;;3.6;;
49900;SDS011;35789;48.414;12.768;2023-03-20T23:35:00;7.9;;;3.6;;
49900;SDS011;35789;48.414;12.768;2023-03-20T23:40:00;7.9;;;3.6;;
49900;SDS011;35789;48.414;12.768;2023-03-20T23:45:00;7.9;;;3.6;;
49900;SDS011;35789;48.414;12.768;2023-03-20T23:50:00;7.9;;;3.6;;
49900;SDS011;35789;48.414;12.768;2023-03-20T23:55:00;7.9;;;3.6;;
